createdAt,value
2018-03-01T00:00:46.411Z,61.80
2018-03-01T00:03:13.266Z,61.80
2018-03-01T00:05:40.114Z,62.40
2018-03-01T00:08:07.024Z,62.70
2018-03-01T00:10:33.884Z,62.60
2018-03-01T00:13:00.818Z,61.80
2018-03-01T00:15:27.766Z,61.30
2018-03-01T00:17:54.588Z,61.40
2018-03-01T00:20:21.439Z,61.50
2018-03-01T00:22:48.324Z,62.20
2018-03-01T00:25:15.187Z,62.30
2018-03-01T00:27:42.075Z,61.90
2018-03-01T00:30:08.914Z,62.20
2018-03-01T00:32:35.906Z,61.70
2018-03-01T00:35:03.486Z,61.90
2018-03-01T00:37:30.374Z,61.70
2018-03-01T00:39:57.191Z,61.50
2018-03-01T00:42:24.097Z,61.30
2018-03-01T00:44:50.999Z,60.80
2018-03-01T00:47:17.916Z,61.10
2018-03-01T00:49:44.809Z,61.20
2018-03-01T00:52:12.419Z,61.60
2018-03-01T00:57:36.378Z,61.40
2018-03-01T01:00:03.312Z,61.60
2018-03-01T01:02:30.139Z,61.40
2018-03-01T01:04:56.986Z,62.10
2018-03-01T01:07:23.868Z,62.60
2018-03-01T01:09:51.470Z,62.20
2018-03-01T01:12:18.349Z,62.30
2018-03-01T01:14:45.182Z,62.20
2018-03-01T01:17:12.039Z,61.80
2018-03-01T01:19:38.886Z,62.00
2018-03-01T01:22:05.766Z,61.90
2018-03-01T01:24:32.607Z,61.60
2018-03-01T01:26:59.454Z,61.40
2018-03-01T01:29:26.330Z,61.80
2018-03-01T01:31:53.898Z,62.30
2018-03-01T01:34:20.722Z,62.60
2018-03-01T01:36:47.704Z,61.70
2018-03-01T01:39:14.521Z,61.30
2018-03-01T01:41:41.391Z,61.00
2018-03-01T01:44:08.218Z,60.80
2018-03-01T01:46:35.098Z,61.10
2018-03-01T01:49:02.624Z,61.30
2018-03-01T01:51:29.470Z,61.50
2018-03-01T01:53:56.295Z,61.40
2018-03-01T01:56:23.151Z,61.50
2018-03-01T01:58:50.007Z,61.50
2018-03-01T02:01:16.910Z,61.30
2018-03-01T02:03:43.742Z,61.40
2018-03-01T02:06:10.578Z,61.20
2018-03-01T02:08:37.454Z,60.80
2018-03-01T02:11:04.298Z,60.60
2018-03-01T02:13:31.154Z,60.80
2018-03-01T02:15:57.981Z,60.90
2018-03-01T02:18:24.860Z,61.00
2018-03-01T02:20:52.443Z,60.60
2018-03-01T02:23:20.021Z,61.40
2018-03-01T02:25:46.859Z,61.40
2018-03-01T02:28:13.686Z,61.20
2018-03-01T02:30:40.561Z,61.50
2018-03-01T02:33:07.467Z,61.40
2018-03-01T02:35:35.044Z,61.60
2018-03-01T02:38:02.603Z,61.60
2018-03-01T02:40:29.458Z,61.60
2018-03-01T02:42:56.288Z,61.80
2018-03-01T02:45:23.119Z,62.10
2018-03-01T02:47:49.979Z,61.60
2018-03-01T02:50:16.822Z,62.20
2018-03-01T02:52:43.697Z,62.00
2018-03-01T02:55:10.532Z,62.00
2018-03-01T02:57:37.418Z,62.10
2018-03-01T03:00:05.047Z,61.60
2018-03-01T03:02:31.899Z,61.60
2018-03-01T03:04:58.783Z,61.50
2018-03-01T03:07:25.651Z,61.00
2018-03-01T03:09:52.475Z,61.20
2018-03-01T03:12:19.308Z,61.10
2018-03-01T03:14:46.171Z,61.30
2018-03-01T03:17:13.011Z,61.40
2018-03-01T03:19:39.829Z,61.70
2018-03-01T03:22:06.691Z,61.40
2018-03-01T03:24:33.542Z,61.10
2018-03-01T03:27:00.407Z,61.00
2018-03-01T03:29:27.246Z,61.10
2018-03-01T03:31:54.107Z,61.40
2018-03-01T03:34:20.980Z,61.50
2018-03-01T03:36:47.843Z,61.40
2018-03-01T03:39:14.677Z,61.50
2018-03-01T03:41:41.536Z,61.50
2018-03-01T03:44:08.439Z,60.80
2018-03-01T03:46:35.305Z,60.90
2018-03-01T03:49:02.872Z,59.90
2018-03-01T03:51:29.690Z,59.80
2018-03-01T03:53:56.530Z,60.30
2018-03-01T03:56:23.348Z,60.20
2018-03-01T03:58:50.191Z,59.80
2018-03-01T04:01:17.035Z,59.50
2018-03-01T04:03:43.891Z,60.60
2018-03-01T04:06:10.729Z,60.70
2018-03-01T04:08:37.588Z,60.90
2018-03-01T04:11:04.430Z,60.70
2018-03-01T04:13:31.306Z,60.40
2018-03-01T04:15:58.870Z,60.10
2018-03-01T04:18:25.699Z,60.10
2018-03-01T04:20:53.282Z,60.60
2018-03-01T04:23:20.131Z,60.60
2018-03-01T04:25:46.987Z,60.50
2018-03-01T04:28:13.823Z,60.70
2018-03-01T04:30:40.654Z,60.60
2018-03-01T04:33:07.507Z,60.80
2018-03-01T04:35:34.328Z,61.30
2018-03-01T04:38:01.159Z,61.20
2018-03-01T04:40:28.735Z,60.90
2018-03-01T04:42:55.564Z,60.90
2018-03-01T04:45:22.382Z,60.90
2018-03-01T04:47:49.255Z,61.10
2018-03-01T04:50:16.799Z,60.50
2018-03-01T04:52:44.378Z,60.30
2018-03-01T04:55:11.227Z,60.30
2018-03-01T04:57:38.059Z,60.40
2018-03-01T05:00:04.891Z,60.60
2018-03-01T05:02:31.774Z,60.60
2018-03-01T05:04:58.620Z,60.80
2018-03-01T05:07:25.501Z,61.10
2018-03-01T05:09:52.419Z,60.90
2018-03-01T05:12:19.296Z,61.30
2018-03-01T05:14:46.132Z,61.40
2018-03-01T05:17:13.099Z,62.00
2018-03-01T05:19:40.154Z,61.70
2018-03-01T05:22:07.068Z,62.20
2018-03-01T05:24:33.880Z,61.80
2018-03-01T05:27:00.718Z,61.00
2018-03-01T05:29:27.615Z,60.80
2018-03-01T05:31:54.566Z,61.60
2018-03-01T05:34:21.423Z,61.50
2018-03-01T05:36:48.311Z,61.80
2018-03-01T05:39:15.147Z,61.50
2018-03-01T05:41:42.003Z,61.20
2018-03-01T05:44:08.946Z,60.60
2018-03-01T05:46:35.783Z,60.70
2018-03-01T05:49:03.095Z,60.10
2018-03-01T05:51:30.803Z,61.80
2018-03-01T05:53:58.543Z,61.20
2018-03-01T05:56:25.508Z,61.10
2018-03-01T05:58:53.256Z,61.70
2018-03-01T06:01:20.927Z,61.60
2018-03-01T06:03:47.890Z,61.50
2018-03-01T06:06:15.407Z,61.10
2018-03-01T06:08:42.296Z,60.50
2018-03-01T06:11:09.198Z,59.90
2018-03-01T06:13:36.163Z,59.90
2018-03-01T06:16:03.805Z,60.00
2018-03-01T06:18:30.767Z,60.00
2018-03-01T06:20:57.743Z,60.90
2018-03-01T06:23:25.897Z,60.90
2018-03-01T06:25:53.605Z,60.00
2018-03-01T06:28:20.598Z,59.90
2018-03-01T06:30:47.559Z,59.80
2018-03-01T06:33:14.463Z,59.90
2018-03-01T06:35:41.338Z,59.60
2018-03-01T06:38:09.062Z,59.10
2018-03-01T06:40:43.024Z,59.10
2018-03-01T06:43:10.050Z,59.40
2018-03-01T06:45:37.161Z,59.30
2018-03-01T06:48:04.162Z,58.60
2018-03-01T06:50:31.060Z,58.30
2018-03-01T06:52:58.032Z,58.00
2018-03-01T06:55:25.095Z,58.80
2018-03-01T06:57:52.016Z,59.70
2018-03-01T07:00:18.990Z,59.70
2018-03-01T07:02:46.708Z,60.30
2018-03-01T07:05:13.661Z,59.50
2018-03-01T07:07:41.470Z,59.40
2018-03-01T07:10:08.463Z,59.40
2018-03-01T07:12:35.366Z,59.60
2018-03-01T07:15:02.315Z,60.00
2018-03-01T07:17:29.266Z,59.20
2018-03-01T07:19:57.000Z,59.00
2018-03-01T07:22:24.667Z,58.80
2018-03-01T07:24:52.432Z,58.20
2018-03-01T07:27:19.451Z,58.20
2018-03-01T07:29:46.359Z,57.30
2018-03-01T07:32:14.059Z,57.80
2018-03-01T07:34:40.936Z,57.10
2018-03-01T07:37:07.840Z,56.90
2018-03-01T07:39:34.635Z,57.20
2018-03-01T07:42:01.511Z,57.10
2018-03-01T07:44:28.379Z,57.50
2018-03-01T07:46:55.226Z,56.70
2018-03-01T07:49:22.360Z,56.30
2018-03-01T07:51:49.474Z,56.60
2018-03-01T07:54:17.239Z,57.90
2018-03-01T07:56:44.235Z,57.20
2018-03-01T07:59:11.976Z,58.00
2018-03-01T08:01:38.824Z,58.00
2018-03-01T08:04:05.740Z,58.00
2018-03-01T08:06:32.744Z,57.40
2018-03-01T08:09:00.978Z,56.60
2018-03-01T08:11:27.989Z,56.60
2018-03-01T08:13:54.894Z,55.30
2018-03-01T08:16:21.782Z,54.40
2018-03-01T08:18:48.776Z,54.80
2018-03-01T08:21:17.093Z,54.30
2018-03-01T08:23:44.193Z,54.20
2018-03-01T08:26:12.040Z,54.10
2018-03-01T08:28:39.110Z,54.00
2018-03-01T08:31:06.182Z,52.70
2018-03-01T08:33:33.189Z,52.50
2018-03-01T08:36:00.190Z,53.70
2018-03-01T08:38:27.931Z,53.10
2018-03-01T08:40:55.756Z,53.00
2018-03-01T08:43:22.852Z,53.00
2018-03-01T08:45:49.987Z,53.30
2018-03-01T08:48:17.096Z,52.60
2018-03-01T08:50:44.169Z,52.30
2018-03-01T08:53:12.030Z,52.60
2018-03-01T08:55:39.136Z,52.50
2018-03-01T08:58:06.099Z,51.90
2018-03-01T09:00:33.740Z,51.50
2018-03-01T09:03:01.540Z,52.00
2018-03-01T09:05:28.539Z,51.90
2018-03-01T09:07:56.263Z,52.70
2018-03-01T09:10:23.159Z,52.70
2018-03-01T09:12:51.739Z,54.70
2018-03-01T09:15:18.608Z,54.70
2018-03-01T09:17:45.677Z,55.60
2018-03-01T09:20:12.612Z,55.50
2018-03-01T09:22:39.569Z,56.90
2018-03-01T09:25:06.549Z,55.60
2018-03-01T09:27:33.524Z,56.20
2018-03-01T09:30:01.296Z,54.40
2018-03-01T09:32:29.030Z,52.80
2018-03-01T09:34:56.851Z,52.30
2018-03-01T09:37:23.949Z,52.20
2018-03-01T09:39:50.803Z,51.60
2018-03-01T09:42:17.736Z,51.30
2018-03-01T09:44:45.622Z,50.30
2018-03-01T09:47:12.495Z,50.20
2018-03-01T09:49:39.592Z,50.60
2018-03-01T09:52:06.607Z,50.50
2018-03-01T09:54:33.639Z,50.40
2018-03-01T09:57:00.678Z,51.20
2018-03-01T09:59:27.764Z,50.30
2018-03-01T10:01:55.488Z,50.80
2018-03-01T10:04:23.163Z,51.20
2018-03-01T10:06:50.126Z,51.20
2018-03-01T10:09:17.208Z,51.80
2018-03-01T10:11:44.207Z,51.40
2018-03-01T10:14:11.150Z,52.20
2018-03-01T10:16:38.112Z,52.30
2018-03-01T10:19:05.096Z,53.00
2018-03-01T10:21:32.007Z,52.70
2018-03-01T10:23:58.970Z,52.30
2018-03-01T10:26:26.635Z,52.80
2018-03-01T10:28:53.670Z,53.70
2018-03-01T10:31:20.652Z,53.70
2018-03-01T10:33:47.612Z,51.80
2018-03-01T10:36:14.499Z,51.90
2018-03-01T10:38:41.531Z,51.30
2018-03-01T10:41:08.443Z,51.60
2018-03-01T10:43:35.468Z,52.10
2018-03-01T10:46:02.543Z,52.20
2018-03-01T10:48:29.482Z,51.60
2018-03-01T10:50:57.060Z,51.70
2018-03-01T10:53:24.014Z,51.60
2018-03-01T10:55:51.058Z,50.20
2018-03-01T10:58:18.061Z,49.70
2018-03-01T11:00:45.063Z,50.20
2018-03-01T11:03:11.978Z,50.40
2018-03-01T11:05:38.854Z,50.40
2018-03-01T11:08:05.860Z,50.40
2018-03-01T11:10:32.819Z,51.00
2018-03-01T11:13:00.661Z,51.10
2018-03-01T11:15:28.438Z,50.00
2018-03-01T11:17:56.228Z,51.00
2018-03-01T11:20:23.315Z,51.00
2018-03-01T11:22:51.037Z,49.90
2018-03-01T11:25:18.179Z,49.30
2018-03-01T11:27:46.042Z,48.30
2018-03-01T11:30:13.518Z,47.80
2018-03-01T11:32:40.541Z,45.10
2018-03-01T11:35:07.598Z,43.70
2018-03-01T11:37:34.495Z,42.90
2018-03-01T11:40:01.555Z,42.80
2018-03-01T11:42:28.645Z,42.20
2018-03-01T11:44:55.615Z,41.00
2018-03-01T11:47:22.600Z,40.40
2018-03-01T11:49:50.268Z,36.60
2018-03-01T11:52:17.223Z,36.60
2018-03-01T11:54:44.311Z,36.90
2018-03-01T11:57:19.014Z,36.60
2018-03-01T11:59:46.955Z,36.40
2018-03-01T12:02:15.252Z,36.10
2018-03-01T12:04:42.363Z,38.60
2018-03-01T12:07:09.484Z,39.10
2018-03-01T12:09:36.766Z,36.90
2018-03-01T12:12:04.748Z,36.30
2018-03-01T12:14:32.691Z,36.20
2018-03-01T12:17:00.589Z,37.20
2018-03-01T12:19:29.469Z,37.20
2018-03-01T12:21:57.389Z,40.50
2018-03-01T12:24:24.960Z,38.70
2018-03-01T12:26:53.584Z,40.60
2018-03-01T12:31:55.037Z,41.80
2018-03-01T12:34:21.991Z,43.20
2018-03-01T12:36:49.008Z,42.20
2018-03-01T12:39:16.019Z,44.20
2018-03-01T12:41:43.127Z,42.90
2018-03-01T12:44:10.024Z,42.00
2018-03-01T12:46:37.016Z,41.90
2018-03-01T12:49:04.053Z,42.60
2018-03-01T12:51:31.825Z,44.20
2018-03-01T12:53:59.569Z,42.40
2018-03-01T12:56:28.245Z,42.30
2018-03-01T12:58:55.262Z,41.20
2018-03-01T13:01:22.339Z,41.20
2018-03-01T13:03:49.348Z,41.90
2018-03-01T13:06:16.317Z,40.70
2018-03-01T13:08:43.376Z,42.20
2018-03-01T13:11:10.319Z,41.50
2018-03-01T13:13:37.293Z,40.90
2018-03-01T13:16:04.950Z,39.50
2018-03-01T13:18:31.909Z,39.50
2018-03-01T13:20:58.927Z,36.50
2018-03-01T13:23:25.973Z,35.60
2018-03-01T13:25:53.112Z,36.30
2018-03-01T13:28:21.060Z,35.60
2018-03-01T13:30:53.086Z,36.60
2018-03-01T13:33:20.874Z,33.40
2018-03-01T13:35:50.784Z,35.00
2018-03-01T13:38:19.100Z,35.40
2018-03-01T13:40:46.274Z,34.60
2018-03-01T13:43:16.288Z,37.00
2018-03-01T13:45:45.303Z,40.20
2018-03-01T13:48:13.091Z,40.60
2018-03-01T13:50:40.162Z,40.50
2018-03-01T13:53:07.140Z,41.30
2018-03-01T13:55:34.191Z,44.00
2018-03-01T13:58:01.117Z,46.00
2018-03-01T14:00:27.995Z,46.70
2018-03-01T14:02:54.875Z,48.50
2018-03-01T14:05:21.741Z,48.10
2018-03-01T14:07:54.695Z,48.20
2018-03-01T14:10:21.742Z,48.50
2018-03-01T14:12:53.343Z,48.40
2018-03-01T14:15:20.248Z,48.40
2018-03-01T14:17:53.883Z,49.90
2018-03-01T14:20:20.783Z,49.90
2018-03-01T14:22:51.451Z,49.80
2018-03-01T14:25:20.242Z,49.40
2018-03-01T14:27:53.943Z,49.00
2018-03-01T14:30:22.629Z,48.90
2018-03-01T14:32:50.011Z,48.30
2018-03-01T14:35:17.782Z,48.20
2018-03-01T14:37:44.613Z,48.90
2018-03-01T14:42:45.085Z,50.30
2018-03-01T14:45:11.939Z,50.90
2018-03-01T14:47:38.824Z,50.00
2018-03-01T14:50:05.756Z,50.50
2018-03-01T14:52:32.667Z,50.20
2018-03-01T14:54:59.510Z,50.80
2018-03-01T14:57:26.399Z,51.90
2018-03-01T14:59:53.235Z,52.60
2018-03-01T15:02:20.074Z,51.60
2018-03-01T15:04:47.728Z,51.90
2018-03-01T15:07:16.038Z,52.80
2018-03-01T15:09:42.971Z,52.70
2018-03-01T15:12:09.856Z,52.80
2018-03-01T15:14:37.425Z,52.90
2018-03-01T15:17:04.512Z,52.00
2018-03-01T15:19:32.251Z,52.00
2018-03-01T15:21:59.190Z,52.00
2018-03-01T15:24:26.193Z,52.60
2018-03-01T15:26:53.200Z,52.40
2018-03-01T15:29:20.911Z,52.60
2018-03-01T15:31:47.838Z,52.60
2018-03-01T15:34:14.811Z,52.20
2018-03-01T15:36:42.637Z,52.60
2018-03-01T15:39:09.632Z,52.50
2018-03-01T15:41:36.754Z,52.00
2018-03-01T15:44:04.703Z,52.00
2018-03-01T15:46:31.780Z,52.60
2018-03-01T15:49:00.512Z,52.10
2018-03-01T15:51:27.498Z,52.20
2018-03-01T15:53:56.243Z,53.10
2018-03-01T15:56:23.250Z,53.10
2018-03-01T15:58:52.121Z,53.30
2018-03-01T16:01:19.356Z,53.20
2018-03-01T16:03:46.388Z,53.40
2018-03-01T16:06:13.395Z,53.40
2018-03-01T16:08:40.340Z,52.70
2018-03-01T16:11:07.406Z,53.50
2018-03-01T16:13:34.366Z,53.50
2018-03-01T16:16:01.335Z,53.30
2018-03-01T16:18:28.355Z,53.30
2018-03-01T16:20:55.251Z,54.10
2018-03-01T16:23:22.210Z,54.70
2018-03-01T16:25:49.174Z,54.00
2018-03-01T16:28:16.170Z,53.80
2018-03-01T16:30:48.325Z,54.20
2018-03-01T16:33:15.312Z,55.20
2018-03-01T16:35:42.344Z,55.20
2018-03-01T16:38:10.329Z,55.00
2018-03-01T16:40:37.976Z,54.90
2018-03-01T16:43:04.871Z,54.60
2018-03-01T16:45:31.807Z,54.50
2018-03-01T16:47:58.752Z,54.60
2018-03-01T16:50:26.639Z,54.80
2018-03-01T16:52:54.279Z,54.80
2018-03-01T16:55:22.567Z,55.50
2018-03-01T16:57:50.191Z,55.50
2018-03-01T17:00:17.258Z,55.40
2018-03-01T17:02:45.192Z,56.50
2018-03-01T17:05:12.263Z,55.80
2018-03-01T17:07:40.187Z,56.10
2018-03-01T17:10:07.872Z,56.10
2018-03-01T17:12:34.823Z,56.50
2018-03-01T17:15:01.890Z,56.00
2018-03-01T17:17:29.445Z,56.00
2018-03-01T17:19:56.267Z,56.10
2018-03-01T17:22:23.115Z,56.80
2018-03-01T17:24:50.117Z,57.00
2018-03-01T17:27:17.762Z,57.30
2018-03-01T17:29:45.391Z,57.60
2018-03-01T17:32:12.227Z,57.60
2018-03-01T17:34:39.097Z,57.80
2018-03-01T17:37:07.682Z,58.80
2018-03-01T17:39:34.575Z,58.70
2018-03-01T17:42:01.574Z,58.70
2018-03-01T17:44:29.407Z,58.40
2018-03-01T17:46:56.304Z,58.40
2018-03-01T17:49:23.244Z,58.90
2018-03-01T17:51:50.164Z,59.40
2018-03-01T17:54:17.015Z,59.10
2018-03-01T17:56:44.014Z,59.50
2018-03-01T17:59:11.406Z,59.50
2018-03-01T18:01:38.460Z,59.20
2018-03-01T18:04:05.397Z,59.40
2018-03-01T18:06:32.326Z,59.60
2018-03-01T18:08:59.171Z,59.40
2018-03-01T18:11:26.384Z,59.60
2018-03-01T18:13:53.457Z,59.60
2018-03-01T18:16:20.467Z,59.80
2018-03-01T18:18:48.111Z,59.80
2018-03-01T18:21:14.942Z,59.70
2018-03-01T18:23:41.795Z,60.30
2018-03-01T18:26:09.558Z,60.60
2018-03-01T18:28:36.487Z,59.80
2018-03-01T18:31:03.404Z,60.10
2018-03-01T18:33:30.261Z,60.60
2018-03-01T18:35:57.203Z,60.10
2018-03-01T18:38:24.106Z,60.00
2018-03-01T18:40:50.999Z,60.40
2018-03-01T18:43:17.827Z,60.70
2018-03-01T18:45:44.675Z,60.10
2018-03-01T18:48:12.378Z,60.50
2018-03-01T18:50:39.708Z,61.00
2018-03-01T18:53:06.518Z,62.60
2018-03-01T18:55:33.383Z,61.10
2018-03-01T18:58:00.248Z,60.10
2018-03-01T19:00:27.100Z,60.60
2018-03-01T19:02:53.940Z,61.50
2018-03-01T19:05:20.780Z,61.20
2018-03-01T19:07:47.646Z,61.50
2018-03-01T19:10:14.495Z,62.10
2018-03-01T19:12:42.448Z,63.10
2018-03-01T19:15:10.051Z,62.30
2018-03-01T19:17:37.657Z,62.50
2018-03-01T19:20:04.520Z,62.40
2018-03-01T19:22:31.370Z,63.00
2018-03-01T19:24:58.266Z,63.10
2018-03-01T19:27:25.119Z,64.50
2018-03-01T19:29:51.974Z,63.60
2018-03-01T19:32:18.899Z,64.20
2018-03-01T19:34:45.971Z,64.00
2018-03-01T19:37:12.968Z,64.10
2018-03-01T19:39:41.062Z,64.80
2018-03-01T19:42:07.965Z,65.00
2018-03-01T19:44:35.583Z,65.70
2018-03-01T19:47:02.459Z,65.70
2018-03-01T19:49:29.339Z,65.40
2018-03-01T19:51:56.189Z,66.10
2018-03-01T19:54:23.044Z,66.30
2018-03-01T19:56:50.107Z,66.30
2018-03-01T19:59:17.791Z,66.70
2018-03-01T20:01:45.099Z,66.70
2018-03-01T20:04:11.967Z,67.50
2018-03-01T20:06:38.827Z,67.30
2018-03-01T20:09:05.719Z,67.30
2018-03-01T20:11:32.551Z,67.60
2018-03-01T20:13:59.439Z,68.00
2018-03-01T20:16:27.107Z,67.90
2018-03-01T20:18:53.963Z,67.80
2018-03-01T20:21:20.815Z,68.40
2018-03-01T20:23:47.667Z,68.20
2018-03-01T20:26:14.494Z,68.70
2018-03-01T20:28:42.135Z,67.70
2018-03-01T20:31:09.032Z,67.70
2018-03-01T20:33:36.595Z,67.20
2018-03-01T20:36:03.508Z,67.20
2018-03-01T20:38:30.347Z,67.50
2018-03-01T20:40:57.178Z,67.70
2018-03-01T20:43:24.068Z,67.60
2018-03-01T20:45:52.031Z,68.00
2018-03-01T20:48:19.007Z,67.80
2018-03-01T20:50:45.874Z,67.60
2018-03-01T20:53:12.966Z,68.00
2018-03-01T20:55:39.962Z,67.70
2018-03-01T20:58:06.822Z,67.80
2018-03-01T21:00:34.429Z,68.10
2018-03-01T21:03:01.995Z,67.70
2018-03-01T21:05:28.828Z,67.70
2018-03-01T21:07:55.704Z,68.70
2018-03-01T21:10:22.914Z,69.30
2018-03-01T21:12:50.839Z,69.90
2018-03-01T21:15:17.798Z,69.90
2018-03-01T21:17:44.775Z,69.60
2018-03-01T21:20:12.459Z,69.80
2018-03-01T21:22:39.283Z,69.70
2018-03-01T21:25:06.931Z,69.90
2018-03-01T21:27:34.519Z,69.00
2018-03-01T21:30:01.712Z,68.90
2018-03-01T21:32:28.623Z,69.00
2018-03-01T21:34:55.449Z,69.80
2018-03-01T21:37:23.055Z,70.40
2018-03-01T21:39:49.910Z,70.30
2018-03-01T21:42:16.778Z,69.30
2018-03-01T21:44:44.381Z,70.30
2018-03-01T21:47:11.264Z,70.30
2018-03-01T21:49:38.106Z,71.30
2018-03-01T21:52:04.939Z,71.90
2018-03-01T21:54:31.775Z,70.60
2018-03-01T21:56:58.666Z,70.90
2018-03-01T21:59:26.251Z,69.00
2018-03-01T22:01:53.071Z,69.00
2018-03-01T22:04:19.967Z,69.50
2018-03-01T22:06:46.794Z,69.50
2018-03-01T22:09:13.631Z,69.10
2018-03-01T22:11:40.462Z,69.70
2018-03-01T22:14:07.288Z,70.20
2018-03-01T22:16:34.246Z,70.00
2018-03-01T22:19:01.147Z,69.80
2018-03-01T22:21:27.975Z,69.90
2018-03-01T22:23:54.827Z,69.80
2018-03-01T22:26:21.653Z,70.20
2018-03-01T22:28:48.543Z,70.40
2018-03-01T22:31:16.143Z,69.80
2018-03-01T22:33:42.974Z,69.70
2018-03-01T22:36:09.826Z,69.50
2018-03-01T22:38:36.657Z,69.10
2018-03-01T22:41:03.483Z,69.10
2018-03-01T22:43:30.341Z,69.90
2018-03-01T22:45:57.194Z,70.40
2018-03-01T22:48:24.031Z,70.50
2018-03-01T22:50:50.898Z,70.40
2018-03-01T22:53:17.735Z,69.80
2018-03-01T22:55:44.562Z,68.80
2018-03-01T22:58:11.415Z,69.20
2018-03-01T23:00:49.522Z,69.30
2018-03-01T23:03:16.358Z,69.00
2018-03-01T23:05:43.203Z,68.90
2018-03-01T23:08:10.070Z,68.90
2018-03-01T23:10:36.883Z,68.60
2018-03-01T23:13:04.019Z,68.40
2018-03-01T23:15:31.678Z,68.30
2018-03-01T23:17:58.535Z,68.30
2018-03-01T23:20:25.366Z,68.60
2018-03-01T23:22:52.939Z,68.00
2018-03-01T23:25:19.810Z,68.00
2018-03-01T23:27:46.683Z,67.90
2018-03-01T23:30:13.524Z,68.30
2018-03-01T23:32:40.368Z,67.60
2018-03-01T23:35:07.946Z,68.80
2018-03-01T23:37:35.531Z,68.50
2018-03-01T23:40:02.595Z,68.50
2018-03-01T23:42:29.574Z,70.20
2018-03-01T23:44:57.166Z,69.90
2018-03-01T23:47:24.056Z,69.90
2018-03-01T23:49:50.912Z,70.20
2018-03-01T23:52:17.758Z,71.50
2018-03-01T23:54:44.646Z,70.40
2018-03-01T23:57:11.522Z,71.10
2018-03-01T23:59:38.318Z,70.60
